Time;durP1;ratioP1;P1;durP2;ratioP2;P2;SDS_P1;SDS_P2;PMS_P1;PMS_P2;Temp;Humidity;BMP_temperature;BMP_pressure;BME280_temperature;BME280_humidity;BME280_pressure;Samples;Min_cycle;Max_cycle;Signal;HPM_P1;HPM_P2
2021/06/05 00:00:34;;;;;;;4.32;3.92;;;;;;;18.08;55.83;100229.19;5071854;28;20021;-76
2021/06/05 00:03:02;;;;;;;5.15;4.60;;;;;;;18.33;55.66;100264.06;5071904;28;20417;-76
2021/06/05 00:05:30;;;;;;;6.22;3.75;;;;;;;18.33;55.79;100261.38;5071840;28;20020;-77
2021/06/05 00:07:56;;;;;;;6.82;4.20;;;;;;;18.08;55.56;100221.16;5071610;28;20025;-76
2021/06/05 00:10:29;;;;;;;4.72;4.13;;;;;;;18.35;55.44;100258.50;5070358;28;20020;-76
2021/06/05 00:12:56;;;;;;;5.15;3.85;;;;;;;18.00;55.41;100201.88;5070479;28;20024;-77
2021/06/05 00:15:26;;;;;;;6.45;4.47;;;;;;;18.24;55.38;100243.94;5071598;28;20024;-77
2021/06/05 00:17:51;;;;;;;5.25;4.20;;;;;;;17.95;55.27;100194.50;5071777;28;20043;-75
2021/06/05 00:20:17;;;;;;;5.80;4.18;;;;;;;18.00;55.14;100189.34;5071610;28;20024;-77
2021/06/05 00:22:42;;;;;;;4.85;3.95;;;;;;;18.08;55.06;100215.81;5071625;28;20078;-76
2021/06/05 00:25:12;;;;;;;4.10;3.70;;;;;;;18.32;55.18;100251.72;5071581;28;20029;-76
2021/06/05 00:27:38;;;;;;;6.03;4.13;;;;;;;18.31;55.33;100249.25;5070369;28;20024;-76
2021/06/05 00:30:05;;;;;;;5.20;4.45;;;;;;;18.31;55.27;100236.72;5071749;28;20024;-76
2021/06/05 00:32:31;;;;;;;4.47;3.95;;;;;;;17.83;55.12;100156.06;5071530;28;20126;-76
2021/06/05 00:34:57;;;;;;;4.25;3.90;;;;;;;18.29;55.13;100233.44;5071437;28;20408;-77
2021/06/05 00:37:22;;;;;;;4.72;4.13;;;;;;;17.95;55.20;100193.66;5071512;28;20024;-76
2021/06/05 00:39:48;;;;;;;4.60;4.20;;;;;;;18.26;55.19;100236.53;5071609;28;20035;-77
2021/06/05 00:42:13;;;;;;;6.07;4.40;;;;;;;18.18;55.11;100236.75;5071601;28;20462;-77
2021/06/05 00:44:38;;;;;;;5.50;3.85;;;;;;;18.10;55.39;100228.97;5071433;28;20107;-76
2021/06/05 00:47:04;;;;;;;4.75;4.10;;;;;;;17.91;55.48;100217.31;5071293;28;20023;-76
2021/06/05 00:49:30;;;;;;;4.72;4.30;;;;;;;17.71;55.82;100190.63;5071335;28;20052;-76
2021/06/05 00:51:58;;;;;;;5.82;4.28;;;;;;;17.63;55.50;100179.31;5071678;28;20031;-76
2021/06/05 00:54:24;;;;;;;7.55;4.38;;;;;;;17.63;55.98;100214.03;5074248;28;21540;-76
2021/06/05 00:57:00;;;;;;;4.90;4.40;;;;;;;17.23;56.29;100179.34;5075095;28;20099;-76
2021/06/05 00:59:26;;;;;;;5.20;4.18;;;;;;;17.54;56.42;100247.31;5075140;28;20020;-76
2021/06/05 01:01:52;;;;;;;5.18;4.70;;;;;;;17.19;56.26;100183.44;5074036;28;20044;-76
2021/06/05 01:04:18;;;;;;;5.05;4.57;;;;;;;17.47;56.81;100242.78;5075130;28;20029;-77
2021/06/05 01:06:54;;;;;;;5.10;4.57;;;;;;;16.72;56.55;100117.75;5075335;28;20082;-76
2021/06/05 01:09:26;;;;;;;4.63;4.07;;;;;;;17.33;56.68;100241.13;5075326;28;20063;-76
2021/06/05 01:12:16;;;;;;;4.82;4.03;;;;;;;17.29;57.04;100231.06;5075135;28;20078;-77
2021/06/05 01:14:48;;;;;;;6.70;4.10;;;;;;;17.35;56.78;100232.94;5074932;28;20071;-76
2021/06/05 01:17:20;;;;;;;4.32;3.92;;;;;;;17.08;56.94;100178.69;5074636;28;20055;-76
2021/06/05 01:20:03;;;;;;;5.72;4.18;;;;;;;17.45;56.53;100236.81;5074757;28;21045;-76
2021/06/05 01:22:47;;;;;;;5.97;4.18;;;;;;;17.51;56.55;100227.16;5074744;28;20028;-75
2021/06/05 01:25:21;;;;;;;5.72;4.45;;;;;;;17.52;56.31;100236.81;5074588;28;20093;-77
2021/06/05 01:27:54;;;;;;;4.47;4.07;;;;;;;17.46;56.29;100233.13;5074506;28;20024;-77
2021/06/05 01:30:33;;;;;;;5.90;3.72;;;;;;;17.43;56.62;100238.88;5073182;28;20052;-75
2021/06/05 01:32:59;;;;;;;7.07;4.15;;;;;;;17.32;56.55;100215.47;5074458;28;20460;-76
2021/06/05 01:35:27;;;;;;;4.80;4.25;;;;;;;17.50;56.04;100244.22;5074474;28;20397;-75
2021/06/05 01:37:54;;;;;;;5.05;3.92;;;;;;;17.32;56.18;100212.81;5074530;28;20492;-76
2021/06/05 01:40:21;;;;;;;6.45;3.90;;;;;;;17.44;56.11;100237.84;5074302;28;20410;-77
2021/06/05 01:42:47;;;;;;;4.15;3.75;;;;;;;17.44;56.26;100235.19;5074155;28;20035;-76
2021/06/05 01:45:25;;;;;;;5.18;4.32;;;;;;;16.93;56.27;100156.72;5074148;28;20039;-76
2021/06/05 01:47:53;;;;;;;4.10;3.70;;;;;;;17.26;56.20;100213.63;5074074;28;20032;-76
2021/06/05 01:50:22;;;;;;;5.57;4.45;;;;;;;17.40;56.23;100233.13;5074336;28;20052;-76
2021/06/05 01:52:49;;;;;;;8.10;4.70;;;;;;;17.07;56.37;100177.88;5074591;28;20056;-77
2021/06/05 01:55:20;;;;;;;4.63;4.22;;;;;;;17.26;56.41;100213.63;5074339;28;20024;-76
2021/06/05 01:58:02;;;;;;;6.18;4.35;;;;;;;17.17;56.21;100203.38;5074040;28;20039;-76
2021/06/05 02:00:35;;;;;;;4.95;4.15;;;;;;;17.42;56.18;100229.22;5073962;28;20040;-76
2021/06/05 02:03:01;;;;;;;5.43;4.72;;;;;;;17.33;56.09;100232.31;5073806;28;20492;-77
2021/06/05 02:05:29;;;;;;;5.43;3.92;;;;;;;17.16;56.29;100223.88;5073971;28;20028;-75
2021/06/05 02:07:55;;;;;;;4.32;3.92;;;;;;;17.12;56.63;100225.31;5073793;28;20119;-76
2021/06/05 02:10:24;;;;;;;6.35;4.30;;;;;;;17.09;56.35;100229.22;5073820;28;20493;-76
2021/06/05 02:12:52;;;;;;;4.60;3.92;;;;;;;16.99;56.65;100212.75;5074022;28;20020;-76
2021/06/05 02:15:23;;;;;;;8.10;4.25;;;;;;;17.06;56.67;100232.25;5072866;28;20111;-76
2021/06/05 02:17:49;;;;;;;6.38;4.90;;;;;;;16.69;56.49;100174.13;5073725;28;20024;-77
2021/06/05 02:20:37;;;;;;;8.65;5.00;;;;;;;16.82;56.28;100198.16;5073752;28;20044;-77
2021/06/05 02:23:11;;;;;;;6.35;4.50;;;;;;;16.80;56.68;100192.22;5073201;28;20029;-75
2021/06/05 02:25:37;;;;;;;5.82;4.38;;;;;;;17.02;56.34;100228.34;5073729;28;20032;-77
2021/06/05 02:28:04;;;;;;;5.63;4.05;;;;;;;16.72;56.55;100189.75;5072536;28;20027;-76
2021/06/05 02:30:31;;;;;;;5.55;4.25;;;;;;;16.38;56.67;100140.81;5072282;28;20029;-77
2021/06/05 02:32:57;;;;;;;4.30;3.90;;;;;;;16.61;56.50;100161.78;5073657;28;20036;-77
2021/06/05 02:35:33;;;;;;;7.20;4.70;;;;;;;16.63;56.68;100161.59;5073546;28;20032;-76
2021/06/05 02:37:59;;;;;;;6.15;4.40;;;;;;;16.99;56.45;100220.75;5073913;28;20493;-77
2021/06/05 02:40:28;;;;;;;5.53;4.13;;;;;;;16.71;56.06;100170.25;5073670;28;20032;-77
2021/06/05 02:42:56;;;;;;;4.60;4.05;;;;;;;16.97;56.16;100220.13;5073375;28;20511;-76
2021/06/05 02:45:31;;;;;;;5.93;4.13;;;;;;;16.87;56.51;100221.56;5073506;28;20481;-76
2021/06/05 02:48:01;;;;;;;4.85;4.32;;;;;;;16.73;56.72;100212.72;5073205;28;20111;-75
2021/06/05 02:50:38;;;;;;;4.47;4.07;;;;;;;16.24;56.52;100127.63;5073360;28;20051;-76
2021/06/05 02:53:05;;;;;;;4.88;4.18;;;;;;;16.86;56.84;100226.06;5073521;28;20025;-76
2021/06/05 02:55:31;;;;;;;4.63;4.18;;;;;;;16.32;56.43;100136.25;5073385;28;20020;-75
2021/06/05 02:57:57;;;;;;;5.93;4.00;;;;;;;16.42;56.25;100182.03;5073161;28;20036;-77
2021/06/05 03:00:35;;;;;;;6.20;4.30;;;;;;;16.25;56.28;100115.94;5073278;28;21377;-77
2021/06/05 03:03:03;;;;;;;4.75;4.30;;;;;;;16.88;56.71;100234.69;5071518;28;20495;-76
2021/06/05 03:05:29;;;;;;;4.65;4.22;;;;;;;16.85;56.64;100240.44;5072889;28;20040;-75
2021/06/05 03:07:55;;;;;;;6.95;4.20;;;;;;;16.49;56.27;100171.41;5073063;28;20393;-75
2021/06/05 03:10:24;;;;;;;7.32;4.78;;;;;;;16.84;56.51;100220.13;5072742;28;20107;-77
2021/06/05 03:12:50;;;;;;;4.57;4.13;;;;;;;16.89;56.35;100231.00;5072714;28;20552;-76
2021/06/05 03:15:16;;;;;;;7.40;4.20;;;;;;;16.91;56.68;100226.28;5071754;28;20100;-76
2021/06/05 03:17:42;;;;;;;5.68;3.97;;;;;;;16.92;56.19;100214.59;5072437;28;20031;-76
2021/06/05 03:20:11;;;;;;;4.90;4.28;;;;;;;16.93;56.46;100221.56;5072395;28;20028;-75
2021/06/05 03:22:38;;;;;;;6.18;4.55;;;;;;;16.90;56.12;100213.97;5072681;28;20067;-75
2021/06/05 03:25:05;;;;;;;9.93;5.13;;;;;;;16.64;56.23;100172.06;5072642;28;20028;-76
2021/06/05 03:27:31;;;;;;;8.25;5.43;;;;;;;16.35;56.21;100130.56;5072521;28;20086;-76
2021/06/05 03:29:56;;;;;;;7.10;4.90;;;;;;;16.55;56.34;100167.94;5072319;28;20419;-76
2021/06/05 03:32:22;;;;;;;8.32;4.78;;;;;;;16.59;56.40;100187.00;5071007;28;20485;-76
2021/06/05 03:34:47;;;;;;;6.22;5.63;;;;;;;16.58;56.25;100182.69;5072174;28;20024;-76
2021/06/05 03:37:13;;;;;;;6.57;5.03;;;;;;;16.36;56.57;100158.84;5072175;28;20408;-76
2021/06/05 03:39:38;;;;;;;6.80;4.70;;;;;;;16.81;56.42;100237.34;5072160;28;20032;-77
2021/06/05 03:42:04;;;;;;;8.32;4.78;;;;;;;16.47;56.55;100166.28;5072303;28;20020;-76
2021/06/05 03:44:30;;;;;;;5.68;5.07;;;;;;;16.55;56.12;100169.78;5072033;28;20024;-76
2021/06/05 03:46:56;;;;;;;5.03;4.40;;;;;;;16.59;56.08;100171.00;5071899;28;20082;-76
2021/06/05 03:49:21;;;;;;;7.25;5.10;;;;;;;16.44;56.22;100149.84;5072009;28;20028;-76
2021/06/05 03:51:47;;;;;;;7.82;5.43;;;;;;;16.88;56.20;100224.03;5072060;28;20029;-76
2021/06/05 03:54:13;;;;;;;5.28;4.53;;;;;;;16.90;56.35;100224.66;5072057;28;20115;-75
2021/06/05 03:56:38;;;;;;;7.18;4.93;;;;;;;16.54;55.90;100176.94;5072008;28;20021;-76
2021/06/05 03:59:04;;;;;;;6.57;5.13;;;;;;;16.66;55.81;100183.38;5071837;28;20032;-76
2021/06/05 04:01:31;;;;;;;7.63;4.93;;;;;;;16.82;56.36;100206.16;5071932;28;20024;-76
2021/06/05 04:03:56;;;;;;;5.65;4.80;;;;;;;16.74;56.25;100193.03;5071891;28;20419;-76
2021/06/05 04:06:24;;;;;;;8.68;5.38;;;;;;;16.61;56.21;100166.31;5071738;28;20025;-77
2021/06/05 04:08:51;;;;;;;6.20;4.80;;;;;;;16.98;55.82;100229.78;5070330;28;20024;-76
2021/06/05 04:11:18;;;;;;;5.60;4.95;;;;;;;16.72;55.76;100174.56;5071634;28;20036;-76
2021/06/05 04:13:45;;;;;;;7.53;5.15;;;;;;;16.60;55.52;100148.66;5071664;28;20028;-76
2021/06/05 04:16:12;;;;;;;6.68;5.25;;;;;;;17.03;55.78;100211.31;5070476;28;20523;-76
2021/06/05 04:18:39;;;;;;;6.70;5.40;;;;;;;17.07;55.92;100223.22;5071588;28;20028;-76
2021/06/05 04:21:07;;;;;;;7.22;6.18;;;;;;;16.72;56.05;100165.75;5070271;28;20501;-77
2021/06/05 04:23:33;;;;;;;9.32;5.70;;;;;;;17.10;56.20;100235.38;5071619;28;20048;-76
2021/06/05 04:25:58;;;;;;;6.07;5.47;;;;;;;17.13;55.80;100225.13;5071387;28;20087;-76
2021/06/05 04:28:26;;;;;;;7.57;5.30;;;;;;;17.22;55.79;100224.91;5071773;28;20086;-75
2021/06/05 04:30:52;;;;;;;7.47;5.22;;;;;;;17.20;55.82;100214.44;5071756;28;20024;-77
2021/06/05 04:33:20;;;;;;;7.50;4.88;;;;;;;17.34;55.84;100225.94;5071721;28;20411;-76
2021/06/05 04:35:45;;;;;;;7.05;5.82;;;;;;;17.00;55.53;100153.03;5071326;28;20095;-76
2021/06/05 04:38:14;;;;;;;8.10;5.55;;;;;;;17.43;55.90;100220.19;5071435;28;20120;-78
2021/06/05 04:40:41;;;;;;;7.82;5.85;;;;;;;17.51;55.93;100213.81;5071157;28;20044;-76
2021/06/05 04:43:07;;;;;;;6.20;5.47;;;;;;;17.59;55.82;100226.97;5071421;28;20028;-76
2021/06/05 04:45:33;;;;;;;8.90;5.80;;;;;;;17.61;55.88;100224.09;5071541;28;20025;-76
2021/06/05 04:47:59;;;;;;;9.75;6.25;;;;;;;17.28;55.97;100170.72;5071133;28;20028;-77
2021/06/05 04:50:29;;;;;;;6.60;5.75;;;;;;;17.40;56.07;100166.41;5071123;28;20028;-77
2021/06/05 04:52:54;;;;;;;6.65;5.18;;;;;;;17.64;55.95;100189.78;5071475;28;20024;-76
2021/06/05 04:55:21;;;;;;;7.13;6.03;;;;;;;17.74;55.95;100200.88;5070104;28;20036;-77
2021/06/05 04:57:46;;;;;;;8.55;5.68;;;;;;;17.83;56.06;100193.47;5071108;28;20032;-76
2021/06/05 05:00:16;;;;;;;6.13;5.53;;;;;;;18.09;55.86;100228.16;5071001;28;20029;-76
2021/06/05 05:02:41;;;;;;;7.22;6.35;;;;;;;17.49;56.14;100127.78;5071281;28;20105;-77
2021/06/05 05:05:08;;;;;;;8.98;5.78;;;;;;;17.72;56.46;100162.88;5071104;28;20110;-77
2021/06/05 05:07:34;;;;;;;7.38;5.88;;;;;;;18.09;56.59;100219.31;5071031;28;20029;-76
2021/06/05 05:10:00;;;;;;;8.95;6.80;;;;;;;17.74;57.00;100147.47;5071318;28;20013;-77
2021/06/05 05:12:26;;;;;;;8.23;6.45;;;;;;;17.94;56.66;100165.31;5071017;28;20567;-76
2021/06/05 05:14:52;;;;;;;7.13;6.50;;;;;;;17.87;56.54;100148.47;5070906;28;20481;-77
2021/06/05 05:17:18;;;;;;;7.57;6.75;;;;;;;18.16;56.58;100181.88;5069733;28;20020;-76
2021/06/05 05:19:43;;;;;;;7.25;6.03;;;;;;;18.47;56.71;100221.22;5070986;28;20044;-76
2021/06/05 05:22:09;;;;;;;8.30;6.65;;;;;;;18.52;56.59;100230.25;5071067;28;20052;-77
2021/06/05 05:24:34;;;;;;;6.70;6.00;;;;;;;18.61;56.29;100212.97;5070861;28;20028;-77
2021/06/05 05:27:00;;;;;;;8.23;6.15;;;;;;;18.52;56.44;100202.69;5070985;28;20029;-76
2021/06/05 05:29:26;;;;;;;5.75;5.15;;;;;;;18.65;56.14;100218.72;5069674;28;20028;-77
2021/06/05 05:31:52;;;;;;;7.00;5.82;;;;;;;18.71;55.78;100210.66;5070967;28;20029;-77
2021/06/05 05:34:17;;;;;;;5.75;5.25;;;;;;;18.80;55.72;100210.41;5070913;28;20020;-78
2021/06/05 05:36:43;;;;;;;6.05;5.55;;;;;;;18.73;55.37;100178.34;5070847;28;20385;-76
2021/06/05 05:39:13;;;;;;;6.47;5.50;;;;;;;18.50;55.15;100136.03;5072793;28;20055;-77
2021/06/05 05:41:39;;;;;;;6.05;5.38;;;;;;;18.71;54.95;100165.19;5074667;28;20024;-76
2021/06/05 05:44:05;;;;;;;6.97;5.10;;;;;;;19.09;54.96;100215.16;5074463;28;20465;-77
2021/06/05 05:46:33;;;;;;;5.25;4.82;;;;;;;18.61;54.45;100129.22;5074300;28;20078;-76
2021/06/05 05:48:58;;;;;;;8.82;5.25;;;;;;;18.83;54.63;100154.63;5074361;28;20055;-77
2021/06/05 05:51:25;;;;;;;5.90;5.30;;;;;;;19.29;53.96;100215.00;5074265;28;20581;-77
2021/06/05 05:53:51;;;;;;;5.70;4.72;;;;;;;19.34;53.69;100224.03;5074106;28;20024;-75
2021/06/05 05:56:19;;;;;;;7.70;5.43;;;;;;;19.03;53.48;100163.31;5074101;28;20017;-78
2021/06/05 05:58:47;;;;;;;5.90;4.82;;;;;;;19.45;53.32;100224.38;5073950;28;20031;-78
2021/06/05 06:01:15;;;;;;;5.50;4.60;;;;;;;19.47;53.44;100223.09;5073934;28;20520;-75
2021/06/05 06:03:40;;;;;;;7.70;5.25;;;;;;;19.06;53.34;100143.31;5073844;28;20432;-77
2021/06/05 06:06:07;;;;;;;5.93;5.30;;;;;;;19.12;53.32;100153.16;5073767;28;20029;-76
2021/06/05 06:08:34;;;;;;;6.70;5.07;;;;;;;19.12;53.15;100152.34;5074375;28;20025;-76
2021/06/05 06:11:00;;;;;;;5.55;4.82;;;;;;;19.56;53.04;100216.47;5074949;28;20519;-77
2021/06/05 06:13:26;;;;;;;5.70;5.20;;;;;;;18.99;53.05;100105.91;5072650;28;20028;-76
2021/06/05 06:15:52;;;;;;;5.30;4.25;;;;;;;19.16;52.40;100138.28;5073801;28;20520;-76
2021/06/05 06:18:17;;;;;;;4.65;4.18;;;;;;;19.29;51.73;100146.19;5074026;28;20565;-76
2021/06/05 06:20:49;;;;;;;4.70;4.13;;;;;;;19.76;51.39;100205.56;5073396;28;20028;-77
2021/06/05 06:23:18;;;;;;;5.38;3.90;;;;;;;19.77;51.18;100199.16;5073708;28;20028;-77
2021/06/05 06:25:49;;;;;;;7.50;4.05;;;;;;;19.56;50.92;100141.47;5073429;28;20028;-77
2021/06/05 06:28:15;;;;;;;6.10;4.93;;;;;;;19.97;50.67;100188.22;5073640;28;20020;-75
2021/06/05 06:30:42;;;;;;;5.55;3.90;;;;;;;20.01;50.27;100184.03;5073494;28;20108;-76
2021/06/05 06:33:10;;;;;;;5.43;3.88;;;;;;;19.99;50.13;100189.63;5073534;28;20074;-77
2021/06/05 06:35:37;;;;;;;4.45;4.05;;;;;;;20.06;49.76;100181.50;5073548;28;20082;-77
2021/06/05 06:38:06;;;;;;;4.95;4.43;;;;;;;20.19;49.68;100185.94;5073691;28;20035;-77
2021/06/05 06:40:34;;;;;;;7.60;4.55;;;;;;;20.21;49.60;100189.19;5073397;28;20035;-76
2021/06/05 06:43:01;;;;;;;5.00;4.32;;;;;;;20.19;49.66;100181.38;5073386;28;20500;-76
2021/06/05 06:45:27;;;;;;;4.72;3.30;;;;;;;20.29;49.79;100170.13;5072975;28;20063;-76
2021/06/05 06:47:53;;;;;;;4.00;3.65;;;;;;;20.22;49.78;100148.75;5073118;28;20104;-76
2021/06/05 06:50:21;;;;;;;8.05;4.22;;;;;;;20.41;49.94;100181.75;5073269;28;20497;-76
2021/06/05 06:52:47;;;;;;;4.60;4.20;;;;;;;20.23;49.32;100128.94;5073429;28;20033;-76
2021/06/05 06:55:12;;;;;;;5.13;4.20;;;;;;;20.54;49.12;100175.38;5072007;28;20515;-77
2021/06/05 06:57:38;;;;;;;5.15;4.10;;;;;;;20.51;49.65;100165.13;5073248;28;20021;-76
2021/06/05 07:00:09;;;;;;;6.68;4.78;;;;;;;20.36;49.28;100138.66;5073128;28;20122;-77
2021/06/05 07:02:34;;;;;;;7.15;5.18;;;;;;;20.63;49.64;100160.59;5072943;28;20029;-75
2021/06/05 07:05:00;;;;;;;5.38;4.60;;;;;;;20.35;49.54;100110.22;5073031;28;20029;-77
2021/06/05 07:07:25;;;;;;;5.70;4.38;;;;;;;20.63;49.52;100131.09;5072962;28;20024;-77
2021/06/05 07:09:50;;;;;;;4.90;4.50;;;;;;;20.59;49.61;100108.44;5072810;28;20028;-78
2021/06/05 07:12:16;;;;;;;5.15;4.30;;;;;;;20.81;49.28;100133.72;5072869;28;20024;-78
2021/06/05 07:14:41;;;;;;;5.97;4.07;;;;;;;20.72;49.24;100108.25;5072803;28;20020;-76
2021/06/05 07:17:08;;;;;;;9.05;5.50;;;;;;;20.92;48.93;100126.75;5072729;28;20408;-77
2021/06/05 07:19:33;;;;;;;6.07;5.40;;;;;;;21.14;49.01;100159.22;5072538;28;20046;-77
2021/06/05 07:22:03;;;;;;;4.95;4.20;;;;;;;20.76;48.69;100082.59;5072656;28;20555;-77
2021/06/05 07:24:29;;;;;;;6.32;4.63;;;;;;;21.17;48.68;100123.84;5072680;28;20085;-77
2021/06/05 07:26:55;;;;;;;4.43;4.13;;;;;;;21.28;48.20;100139.19;5072603;28;20024;-77
2021/06/05 07:29:20;;;;;;;5.80;3.80;;;;;;;21.02;48.16;100077.84;5071076;28;20154;-77
2021/06/05 07:31:50;;;;;;;4.45;3.60;;;;;;;21.47;48.02;100129.94;5072608;28;20508;-77
2021/06/05 07:34:21;;;;;;;4.45;3.58;;;;;;;21.60;47.66;100133.47;5072416;28;20201;-77
2021/06/05 07:36:50;;;;;;;4.80;4.32;;;;;;;21.71;47.39;100140.69;5072377;28;20024;-76
2021/06/05 07:39:18;;;;;;;5.03;4.20;;;;;;;21.77;47.51;100137.88;5072215;28;20042;-75
2021/06/05 07:41:44;;;;;;;4.90;3.50;;;;;;;21.51;46.35;100081.94;5072214;28;20100;-75
2021/06/05 07:44:11;;;;;;;4.25;3.60;;;;;;;21.87;45.62;100126.53;5071796;28;20020;-76
2021/06/05 07:46:42;;;;;;;5.53;3.78;;;;;;;21.89;44.37;100135.97;5070620;28;20076;-75
2021/06/05 07:49:07;;;;;;;4.70;3.53;;;;;;;21.85;45.05;100117.88;5072745;28;20032;-77
2021/06/05 07:51:33;;;;;;;5.85;3.22;;;;;;;21.65;44.06;100066.38;5071916;28;20081;-77
2021/06/05 07:53:58;;;;;;;5.03;3.25;;;;;;;22.08;43.93;100131.28;5070520;28;20089;-77
2021/06/05 07:56:24;;;;;;;3.70;3.40;;;;;;;22.21;43.60;100138.25;5071964;28;20030;-77
2021/06/05 07:58:49;;;;;;;3.67;3.38;;;;;;;21.51;43.53;100015.56;5071693;28;20131;-77
2021/06/05 08:01:15;;;;;;;5.60;3.45;;;;;;;22.39;43.75;100129.19;5071382;28;20028;-76
2021/06/05 08:03:40;;;;;;;5.28;4.03;;;;;;;22.20;43.14;100082.81;5071744;28;20031;-77
2021/06/05 08:06:06;;;;;;;5.35;3.67;;;;;;;22.45;43.35;100104.84;5071788;28;20111;-76
2021/06/05 08:08:31;;;;;;;3.65;3.22;;;;;;;22.33;43.25;100065.59;5071721;28;20028;-77
2021/06/05 08:10:57;;;;;;;3.60;3.30;;;;;;;22.26;43.45;100043.38;5071522;28;20508;-77
2021/06/05 08:13:24;;;;;;;4.35;3.75;;;;;;;22.79;43.41;100129.09;5071834;28;20126;-76
2021/06/05 08:15:51;;;;;;;3.70;3.40;;;;;;;22.63;42.77;100090.34;5070709;28;20031;-77
2021/06/05 08:18:19;;;;;;;4.00;3.70;;;;;;;22.89;42.92;100129.28;5071952;28;20491;-76
2021/06/05 08:20:50;;;;;;;6.63;3.47;;;;;;;23.01;42.83;100115.75;5071816;28;20025;-76
2021/06/05 08:23:18;;;;;;;4.30;3.90;;;;;;;23.13;42.37;100122.72;5071584;28;20032;-77
2021/06/05 08:25:44;;;;;;;4.95;4.30;;;;;;;22.87;42.25;100074.06;5071565;28;20058;-77
2021/06/05 08:28:10;;;;;;;4.97;3.33;;;;;;;23.39;41.81;100118.50;5070194;28;20028;-77
2021/06/05 08:30:42;;;;;;;6.00;3.47;;;;;;;23.28;41.28;100081.69;5071488;28;20055;-76
2021/06/05 08:33:09;;;;;;;5.38;4.13;;;;;;;23.61;40.94;100117.75;5071600;28;20031;-77
2021/06/05 08:35:35;;;;;;;5.45;4.93;;;;;;;23.22;40.75;100074.63;5071439;28;20025;-77
2021/06/05 08:38:01;;;;;;;5.78;4.28;;;;;;;23.50;40.39;100114.06;5071477;28;20028;-77
2021/06/05 08:40:57;;;;;;;5.25;4.20;;;;;;;23.49;39.84;100115.13;5070005;28;20059;-77
2021/06/05 08:43:31;;;;;;;5.80;4.43;;;;;;;23.50;39.73;100113.25;5070234;28;20032;-76
2021/06/05 08:46:02;;;;;;;5.22;4.65;;;;;;;23.15;39.64;100041.66;5071455;28;20048;-78
2021/06/05 08:48:27;;;;;;;8.07;3.70;;;;;;;23.52;39.81;100108.44;5071458;28;20031;-75
2021/06/05 08:51:07;;;;;;;5.07;3.55;;;;;;;23.66;39.62;100105.16;5069838;28;20029;-77
2021/06/05 08:53:32;;;;;;;7.57;6.88;;;;;;;23.72;39.35;100079.88;5069809;28;20024;-75
2021/06/05 08:56:02;;;;;;;5.50;4.90;;;;;;;24.03;39.12;100108.06;5071104;28;20016;-77
2021/06/05 08:58:37;;;;;;;6.43;5.22;;;;;;;23.99;39.41;100096.13;5071569;28;20024;-76
2021/06/05 09:01:13;;;;;;;5.47;4.78;;;;;;;23.99;38.19;100106.13;5071366;28;20025;-75
2021/06/05 09:03:40;;;;;;;5.70;5.10;;;;;;;23.77;38.50;100090.72;5071007;28;20027;-76
2021/06/05 09:06:30;;;;;;;4.53;3.97;;;;;;;23.76;38.02;100105.28;5070840;28;20489;-77
2021/06/05 09:08:56;;;;;;;5.82;3.60;;;;;;;23.53;38.19;100062.34;5071023;28;20024;-74
2021/06/05 09:11:21;;;;;;;3.50;3.20;;;;;;;23.52;37.83;100020.28;5069987;28;20032;-77
2021/06/05 09:13:47;;;;;;;3.88;3.38;;;;;;;23.96;37.63;100031.09;5072409;28;20021;-77
2021/06/05 09:16:18;;;;;;;15.52;14.00;;;;;;;24.65;37.30;100082.53;5074845;28;20024;-75
2021/06/05 09:18:48;;;;;;;7.00;4.93;;;;;;;24.95;36.93;100081.97;5075177;28;20025;-76
2021/06/05 09:21:25;;;;;;;6.22;3.65;;;;;;;25.25;36.19;100081.38;5075409;28;20489;-77
2021/06/05 09:23:50;;;;;;;4.10;3.50;;;;;;;25.14;35.49;100021.03;5074995;28;20017;-75
2021/06/05 09:26:19;;;;;;;5.93;5.40;;;;;;;25.72;35.25;100080.59;5074765;28;20099;-77
2021/06/05 09:28:45;;;;;;;4.70;3.95;;;;;;;25.39;35.01;100030.38;5074779;28;20043;-75
2021/06/05 09:31:22;;;;;;;4.28;3.55;;;;;;;25.93;34.48;100082.28;5074478;28;20020;-76
2021/06/05 09:33:49;;;;;;;5.53;4.88;;;;;;;25.97;34.12;100065.25;5074522;28;20028;-76
2021/06/05 09:36:29;;;;;;;6.78;4.32;;;;;;;25.85;33.87;100070.06;5074331;28;20020;-76
2021/06/05 09:38:56;;;;;;;6.80;4.65;;;;;;;25.26;34.53;100027.06;5074901;28;20024;-76
2021/06/05 09:41:49;;;;;;;8.70;7.78;;;;;;;25.26;34.69;100056.78;5074261;28;20040;-76
2021/06/05 09:44:21;;;;;;;5.18;4.45;;;;;;;25.55;34.12;100061.81;5071384;28;20519;-76
2021/06/05 09:47:02;;;;;;;4.60;3.35;;;;;;;25.82;32.88;100059.78;5074082;28;20040;-75
2021/06/05 09:49:33;;;;;;;6.53;5.32;;;;;;;26.24;33.28;100061.53;5074316;28;20497;-77
2021/06/05 09:52:01;;;;;;;;;;;;;;;26.55;33.05;100057.81;5074690;28;20017;-76
2021/06/05 09:54:34;;;;;;;5.63;4.50;;;;;;;26.76;32.27;100044.28;5073218;28;19934;-76
2021/06/05 09:57:30;;;;;;;7.43;5.82;;;;;;;27.09;31.33;100051.84;5074354;28;20027;-76
2021/06/05 10:00:17;;;;;;;6.80;4.15;;;;;;;27.33;31.39;100040.38;5074102;28;20070;-77
2021/06/05 10:02:48;;;;;;;4.18;3.33;;;;;;;27.31;30.05;99993.75;5074081;28;20032;-77
2021/06/05 10:05:50;;;;;;;5.50;3.67;;;;;;;27.22;30.46;100028.75;5074107;28;20040;-76
2021/06/05 10:08:24;;;;;;;;;;;;;;;27.35;30.13;100046.34;5032457;28;20112;-76
2021/06/05 10:11:01;;;;;;;6.22;3.75;;;;;;;27.22;29.35;99969.94;5067631;28;19909;-76
2021/06/05 10:13:32;;;;;;;3.78;3.30;;;;;;;27.34;29.61;99996.72;5073866;28;20106;-78
2021/06/05 10:16:02;;;;;;;4.13;3.13;;;;;;;27.35;29.35;100040.91;5073800;28;20063;-76
2021/06/05 10:18:53;;;;;;;3.80;2.92;;;;;;;26.53;29.13;99967.88;5074125;28;20028;-77
2021/06/05 10:21:23;;;;;;;3.35;2.65;;;;;;;27.28;28.64;100038.50;5068182;28;20036;-75
2021/06/05 10:23:53;;;;;;;2.80;2.60;;;;;;;27.56;28.19;100034.34;5073457;28;20032;-74
2021/06/05 10:26:42;;;;;;;3.95;2.40;;;;;;;28.02;26.29;100004.28;5073668;28;20496;-75
2021/06/05 10:29:16;;;;;;;5.95;5.10;;;;;;;27.94;26.53;99926.97;5073329;28;20035;-74
2021/06/05 10:31:42;;;;;;;6.03;4.28;;;;;;;28.92;26.54;100023.69;5073236;28;20028;-77
2021/06/05 10:34:22;;;;;;;4.85;3.53;;;;;;;28.83;25.58;99962.06;5073335;28;20094;-76
2021/06/05 10:36:51;;;;;;;4.45;2.97;;;;;;;28.58;26.36;99961.22;5073368;28;20025;-76
2021/06/05 10:39:23;;;;;;;4.28;2.53;;;;;;;28.55;25.54;100009.91;5072932;28;20470;-74
2021/06/05 10:41:57;;;;;;;8.10;4.95;;;;;;;28.20;26.17;100006.31;5073560;28;20040;-76
2021/06/05 10:44:23;;;;;;;4.50;3.40;;;;;;;27.88;26.95;100014.16;5073653;28;20386;-77
2021/06/05 10:46:48;;;;;;;6.82;3.78;;;;;;;27.62;27.23;100013.47;5073241;28;20111;-76
2021/06/05 10:49:35;;;;;;;8.48;3.42;;;;;;;27.35;26.40;100002.97;5073307;28;20056;-75
2021/06/05 10:52:17;;;;;;;5.10;3.70;;;;;;;27.07;27.91;100010.66;5073214;28;20028;-75
2021/06/05 10:54:50;;;;;;;4.05;3.63;;;;;;;26.84;27.79;99984.13;5073073;28;20058;-76
2021/06/05 10:57:18;;;;;;;12.07;8.48;;;;;;;26.82;27.45;99995.22;5072960;28;20089;-75
2021/06/05 10:59:49;;;;;;;8.18;5.63;;;;;;;26.73;28.15;99996.84;5072979;28;20029;-75
2021/06/05 11:02:33;;;;;;;13.70;9.85;;;;;;;26.70;28.16;99994.69;5073006;28;20036;-75
2021/06/05 11:04:58;;;;;;;4.82;3.45;;;;;;;26.58;28.25;99986.84;5071637;28;20583;-76
2021/06/05 11:07:31;;;;;;;5.10;3.22;;;;;;;26.75;28.09;99964.88;5071543;28;20108;-76
2021/06/05 11:09:59;;;;;;;4.00;3.00;;;;;;;26.88;28.24;99944.56;5073140;28;20059;-77
2021/06/05 11:12:25;;;;;;;4.63;3.50;;;;;;;27.28;28.27;99983.47;5072698;28;20100;-74
2021/06/05 11:14:52;;;;;;;5.65;4.20;;;;;;;27.45;28.41;99978.50;5072802;28;20111;-76
2021/06/05 11:17:33;;;;;;;3.83;3.22;;;;;;;27.27;28.44;99904.03;5072748;28;20029;-75
2021/06/05 11:20:05;;;;;;;4.13;3.22;;;;;;;27.92;27.68;99978.03;5072589;28;20024;-75
2021/06/05 11:22:50;;;;;;;7.53;6.75;;;;;;;28.03;27.81;99973.34;5072479;28;20032;-76
2021/06/05 11:25:15;;;;;;;6.10;3.45;;;;;;;28.07;27.80;99975.19;5071145;28;20029;-74
2021/06/05 11:27:40;;;;;;;9.05;3.30;;;;;;;28.20;27.31;99967.50;5071039;28;20039;-77
2021/06/05 11:30:21;;;;;;;4.43;3.03;;;;;;;28.26;27.11;99966.44;5072327;28;20082;-76
2021/06/05 11:32:55;;;;;;;10.05;5.68;;;;;;;28.38;25.46;99973.09;5072328;28;20492;-75
2021/06/05 11:36:00;;;;;;;5.03;3.53;;;;;;;28.53;26.29;99941.47;5071797;28;20056;-76